createdAt,value
2017-06-24T00:00:16.662Z,0
2017-06-24T00:01:17.311Z,0
2017-06-24T00:02:17.968Z,0
2017-06-24T00:03:18.614Z,0
2017-06-24T00:04:19.246Z,0
2017-06-24T00:05:19.862Z,0
2017-06-24T00:06:20.476Z,0
2017-06-24T00:07:21.149Z,0
2017-06-24T00:08:21.800Z,0
2017-06-24T00:09:22.404Z,0
2017-06-24T00:10:23.025Z,0
2017-06-24T00:11:23.647Z,0
2017-06-24T00:12:24.323Z,0
2017-06-24T00:13:24.940Z,0
2017-06-24T00:14:25.559Z,0
2017-06-24T00:15:26.182Z,0
2017-06-24T00:16:26.804Z,0
2017-06-24T00:17:27.501Z,0
2017-06-24T00:18:28.113Z,0
2017-06-24T00:19:28.767Z,0
2017-06-24T00:20:29.388Z,0
2017-06-24T00:21:30.014Z,0
2017-06-24T00:22:30.683Z,0
2017-06-24T00:23:31.303Z,0
2017-06-24T00:24:31.963Z,0
2017-06-24T00:25:32.582Z,0
2017-06-24T00:26:33.204Z,0
2017-06-24T00:27:33.873Z,0
2017-06-24T00:28:34.526Z,0
2017-06-24T00:29:35.147Z,0
2017-06-24T00:30:35.772Z,0
2017-06-24T00:31:36.386Z,0
2017-06-24T00:32:37.058Z,0
2017-06-24T00:33:37.678Z,0
2017-06-24T00:34:38.298Z,0
2017-06-24T00:35:38.950Z,0
2017-06-24T00:36:39.578Z,0
2017-06-24T00:37:40.244Z,0
2017-06-24T00:38:40.867Z,0
2017-06-24T00:39:41.487Z,0
2017-06-24T00:40:42.135Z,0
2017-06-24T00:41:42.789Z,0
2017-06-24T00:42:43.461Z,0
2017-06-24T00:43:44.141Z,0
2017-06-24T00:44:44.748Z,0
2017-06-24T00:45:45.367Z,0
2017-06-24T00:46:45.989Z,0
2017-06-24T00:47:46.662Z,0
2017-06-24T00:48:47.283Z,0
2017-06-24T00:49:47.903Z,0
2017-06-24T00:50:48.561Z,0
2017-06-24T00:51:49.177Z,0
2017-06-24T00:52:49.848Z,0
2017-06-24T00:53:50.509Z,0
2017-06-24T00:54:51.126Z,0
2017-06-24T00:55:51.746Z,0
2017-06-24T00:56:52.367Z,0
2017-06-24T00:57:53.036Z,0
2017-06-24T00:58:53.665Z,0
2017-06-24T00:59:54.282Z,0
2017-06-24T01:00:54.935Z,0
2017-06-24T01:01:55.541Z,0
2017-06-24T01:02:56.248Z,0
2017-06-24T01:03:56.868Z,0
2017-06-24T01:04:57.490Z,0
2017-06-24T01:05:58.167Z,0
2017-06-24T01:06:58.773Z,0
2017-06-24T01:07:59.478Z,0
2017-06-24T01:09:00.136Z,0
2017-06-24T01:10:00.758Z,0
2017-06-24T01:11:01.428Z,0
2017-06-24T01:12:02.049Z,0
2017-06-24T01:13:02.700Z,0
2017-06-24T01:14:03.309Z,0
2017-06-24T01:15:03.927Z,0
2017-06-24T01:16:04.598Z,0
2017-06-24T01:17:05.224Z,0
2017-06-24T01:18:05.842Z,0
2017-06-24T01:19:06.464Z,0
2017-06-24T01:20:07.089Z,0
2017-06-24T01:21:07.755Z,0
2017-06-24T01:22:08.378Z,0
2017-06-24T01:23:09.000Z,0
2017-06-24T01:24:09.617Z,0
2017-06-24T01:25:10.237Z,0
2017-06-24T01:26:10.942Z,0
2017-06-24T01:27:11.561Z,0
2017-06-24T01:28:12.187Z,0
2017-06-24T01:29:12.806Z,0
2017-06-24T01:30:13.427Z,0
2017-06-24T01:31:14.100Z,0
2017-06-24T01:32:14.715Z,0
2017-06-24T01:33:15.333Z,0
2017-06-24T01:34:15.953Z,0
2017-06-24T01:35:16.625Z,0
2017-06-24T01:36:17.260Z,0
2017-06-24T01:37:17.873Z,0
2017-06-24T01:38:18.490Z,0
2017-06-24T01:39:19.143Z,0
2017-06-24T01:40:19.797Z,0
2017-06-24T01:41:20.440Z,0
2017-06-24T01:42:21.098Z,0
2017-06-24T01:43:21.720Z,0
2017-06-24T01:44:22.335Z,0
2017-06-24T01:45:22.958Z,0
2017-06-24T01:46:23.643Z,0
2017-06-24T01:47:24.298Z,0
2017-06-24T01:48:24.918Z,0
2017-06-24T01:49:25.564Z,0
2017-06-24T01:50:26.169Z,0
2017-06-24T01:51:26.788Z,0
2017-06-24T01:52:27.484Z,0
2017-06-24T01:53:28.090Z,0
2017-06-24T01:54:28.771Z,0
2017-06-24T01:55:29.402Z,0
2017-06-24T01:56:30.035Z,0
2017-06-24T01:57:30.738Z,0
2017-06-24T01:58:31.359Z,0
2017-06-24T01:59:32.015Z,0
2017-06-24T02:00:32.634Z,0
2017-06-24T02:01:33.280Z,0
2017-06-24T02:02:33.935Z,0
2017-06-24T02:03:34.590Z,0
2017-06-24T02:04:35.210Z,0
2017-06-24T02:05:35.830Z,0
2017-06-24T02:06:36.450Z,0
2017-06-24T02:07:37.119Z,0
2017-06-24T02:08:37.740Z,0
2017-06-24T02:09:38.392Z,0
2017-06-24T02:10:38.999Z,0
2017-06-24T02:11:39.615Z,0
2017-06-24T02:12:40.285Z,0
2017-06-24T02:13:40.904Z,0
2017-06-24T02:14:41.524Z,0
2017-06-24T02:15:42.147Z,0
2017-06-24T02:16:42.762Z,0
2017-06-24T02:17:43.439Z,0
2017-06-24T02:18:44.059Z,0
2017-06-24T02:19:44.729Z,0
2017-06-24T02:20:45.347Z,0
2017-06-24T02:21:45.968Z,0
2017-06-24T02:22:46.589Z,0
2017-06-24T02:23:47.208Z,0
2017-06-24T02:24:47.877Z,0
2017-06-24T02:25:48.497Z,0
2017-06-24T02:26:49.118Z,0
2017-06-24T02:27:49.773Z,0
2017-06-24T02:28:50.430Z,0
2017-06-24T02:29:51.100Z,0
2017-06-24T02:30:51.720Z,0
2017-06-24T02:31:52.339Z,0
2017-06-24T02:32:52.986Z,0
2017-06-24T02:33:53.638Z,0
2017-06-24T02:34:54.372Z,0
2017-06-24T02:35:55.028Z,0
2017-06-24T02:36:55.648Z,0
2017-06-24T02:37:56.272Z,0
2017-06-24T02:38:56.888Z,0
2017-06-24T02:39:57.556Z,0
2017-06-24T02:40:58.178Z,0
2017-06-24T02:41:58.834Z,0
2017-06-24T02:42:59.452Z,0
2017-06-24T02:44:00.070Z,0
2017-06-24T02:45:00.740Z,0
2017-06-24T02:46:01.397Z,0
2017-06-24T02:47:02.012Z,0
2017-06-24T02:48:02.665Z,0
2017-06-24T02:49:03.286Z,0
2017-06-24T02:50:03.955Z,0
2017-06-24T02:51:04.575Z,0
2017-06-24T02:52:05.194Z,0
2017-06-24T02:53:05.813Z,0
2017-06-24T02:54:06.467Z,0
2017-06-24T02:55:07.137Z,0
2017-06-24T02:56:07.791Z,0
2017-06-24T02:57:08.445Z,0
2017-06-24T02:58:09.067Z,0
2017-06-24T02:59:09.685Z,0
2017-06-24T03:00:10.394Z,0
2017-06-24T03:01:11.009Z,0
2017-06-24T03:02:11.628Z,0
2017-06-24T03:03:12.246Z,0
2017-06-24T03:04:12.894Z,0
2017-06-24T03:05:13.551Z,0
2017-06-24T03:06:14.169Z,0
2017-06-24T03:07:14.796Z,0
2017-06-24T03:08:15.413Z,0
2017-06-24T03:09:16.039Z,0
2017-06-24T03:10:16.705Z,0
2017-06-24T03:11:17.323Z,0
2017-06-24T03:12:17.945Z,0
2017-06-24T03:13:18.563Z,0
2017-06-24T03:14:19.187Z,0
2017-06-24T03:15:19.854Z,0
2017-06-24T03:16:20.482Z,0
2017-06-24T03:17:21.101Z,0
2017-06-24T03:18:21.746Z,0
2017-06-24T03:19:22.351Z,0
2017-06-24T03:20:23.055Z,0
2017-06-24T03:21:23.710Z,0
2017-06-24T03:22:24.331Z,4
2017-06-24T03:23:24.950Z,0
2017-06-24T03:24:25.604Z,0
2017-06-24T03:25:26.273Z,0
2017-06-24T03:26:26.892Z,4
2017-06-24T03:27:27.510Z,0
2017-06-24T03:28:28.129Z,0
2017-06-24T03:29:28.782Z,4
2017-06-24T03:30:29.436Z,0
2017-06-24T03:31:30.054Z,4
2017-06-24T03:32:30.677Z,0
2017-06-24T03:33:31.320Z,0
2017-06-24T03:34:31.926Z,4
2017-06-24T03:35:32.596Z,0
2017-06-24T03:36:33.215Z,0
2017-06-24T03:37:33.835Z,4
2017-06-24T03:38:34.454Z,0
2017-06-24T03:39:35.073Z,4
2017-06-24T03:40:35.749Z,4
2017-06-24T03:41:36.369Z,4
2017-06-24T03:42:36.986Z,4
2017-06-24T03:43:37.637Z,4
2017-06-24T03:44:38.256Z,4
2017-06-24T03:45:38.923Z,8
2017-06-24T03:46:39.576Z,4
2017-06-24T03:47:40.200Z,4
2017-06-24T03:48:40.818Z,8
2017-06-24T03:49:41.438Z,4
2017-06-24T03:50:42.106Z,4
2017-06-24T03:51:42.725Z,8
2017-06-24T03:52:43.369Z,4
2017-06-24T03:53:44.022Z,8
2017-06-24T03:54:44.647Z,8
2017-06-24T03:55:45.351Z,8
2017-06-24T03:56:45.973Z,8
2017-06-24T03:57:46.593Z,12
2017-06-24T03:58:47.211Z,8
2017-06-24T03:59:47.830Z,12
2017-06-24T04:00:48.501Z,12
2017-06-24T04:01:49.151Z,12
2017-06-24T04:02:49.755Z,12
2017-06-24T04:03:50.400Z,12
2017-06-24T04:04:51.034Z,12
2017-06-24T04:05:51.721Z,12
2017-06-24T04:06:52.325Z,12
2017-06-24T04:07:52.946Z,12
2017-06-24T04:08:53.596Z,12
2017-06-24T04:09:54.201Z,12
2017-06-24T04:10:54.906Z,12
2017-06-24T04:11:55.526Z,12
2017-06-24T04:12:56.151Z,16
2017-06-24T04:13:56.804Z,12
2017-06-24T04:14:57.426Z,16
2017-06-24T04:15:58.097Z,16
2017-06-24T04:16:58.715Z,20
2017-06-24T04:17:59.362Z,20
2017-06-24T04:18:59.969Z,20
2017-06-24T04:20:00.588Z,24
2017-06-24T04:21:01.257Z,28
2017-06-24T04:22:01.881Z,28
2017-06-24T04:23:02.501Z,32
2017-06-24T04:24:03.120Z,32
2017-06-24T04:25:03.742Z,32
2017-06-24T04:26:04.455Z,36
2017-06-24T04:27:05.112Z,32
2017-06-24T04:28:05.768Z,36
2017-06-24T04:29:06.390Z,36
2017-06-24T04:30:07.011Z,36
2017-06-24T04:31:07.679Z,32
2017-06-24T04:32:08.299Z,32
2017-06-24T04:33:08.954Z,32
2017-06-24T04:34:09.575Z,28
2017-06-24T04:35:10.228Z,32
2017-06-24T04:36:10.880Z,32
2017-06-24T04:37:11.501Z,36
2017-06-24T04:38:12.121Z,36
2017-06-24T04:39:12.775Z,40
2017-06-24T04:40:13.380Z,40
2017-06-24T04:41:14.078Z,48
2017-06-24T04:42:14.705Z,48
2017-06-24T04:43:15.324Z,44
2017-06-24T04:44:15.949Z,48
2017-06-24T04:45:16.564Z,48
2017-06-24T04:46:17.235Z,48
2017-06-24T04:47:17.865Z,48
2017-06-24T04:48:18.514Z,52
2017-06-24T04:49:19.140Z,52
2017-06-24T04:50:19.758Z,52
2017-06-24T04:51:20.428Z,52
2017-06-24T04:52:21.055Z,52
2017-06-24T04:53:21.671Z,52
2017-06-24T04:54:22.292Z,52
2017-06-24T04:55:22.947Z,52
2017-06-24T04:56:23.625Z,56
2017-06-24T04:57:24.330Z,52
2017-06-24T04:58:25.004Z,60
2017-06-24T04:59:25.624Z,60
2017-06-24T05:00:26.327Z,68
2017-06-24T05:01:26.980Z,68
2017-06-24T05:02:27.678Z,68
2017-06-24T05:03:28.382Z,64
2017-06-24T05:04:29.034Z,60
2017-06-24T05:05:29.662Z,60
2017-06-24T05:06:30.269Z,56
2017-06-24T05:07:30.974Z,56
2017-06-24T05:08:31.593Z,56
2017-06-24T05:09:32.215Z,56
2017-06-24T05:10:32.886Z,56
2017-06-24T05:11:33.504Z,56
2017-06-24T05:12:34.149Z,56
2017-06-24T05:13:34.758Z,56
2017-06-24T05:14:35.378Z,56
2017-06-24T05:15:36.049Z,60
2017-06-24T05:16:36.718Z,60
2017-06-24T05:17:37.340Z,68
2017-06-24T05:18:37.960Z,72
2017-06-24T05:19:38.630Z,76
2017-06-24T05:20:39.262Z,76
2017-06-24T05:21:39.929Z,76
2017-06-24T05:22:40.546Z,68
2017-06-24T05:23:41.167Z,68
2017-06-24T05:24:41.841Z,64
2017-06-24T05:25:42.661Z,60
2017-06-24T05:26:43.281Z,60
2017-06-24T05:27:43.951Z,60
2017-06-24T05:28:44.626Z,64
2017-06-24T05:29:45.245Z,64
2017-06-24T05:30:45.906Z,64
2017-06-24T05:31:46.574Z,64
2017-06-24T05:32:47.244Z,64
2017-06-24T05:33:47.866Z,64
2017-06-24T05:34:48.566Z,64
2017-06-24T05:35:49.252Z,68
2017-06-24T05:36:49.911Z,64
2017-06-24T05:37:50.591Z,64
2017-06-24T05:38:51.260Z,68
2017-06-24T05:39:51.879Z,68
2017-06-24T05:40:52.529Z,72
2017-06-24T05:41:53.134Z,68
2017-06-24T05:42:53.805Z,76
2017-06-24T05:43:54.426Z,76
2017-06-24T05:44:55.072Z,76
2017-06-24T05:45:55.708Z,76
2017-06-24T05:46:56.314Z,84
2017-06-24T05:47:56.985Z,84
2017-06-24T05:48:57.608Z,84
2017-06-24T05:49:58.232Z,84
2017-06-24T05:50:58.858Z,92
2017-06-24T05:51:59.486Z,96
2017-06-24T05:53:00.202Z,100
2017-06-24T05:54:00.856Z,104
2017-06-24T05:55:01.547Z,104
2017-06-24T05:56:02.272Z,108
2017-06-24T05:57:02.945Z,108
2017-06-24T05:58:03.618Z,112
2017-06-24T05:59:04.242Z,112
2017-06-24T06:00:04.916Z,112
2017-06-24T06:01:05.540Z,112
2017-06-24T06:02:06.204Z,124
2017-06-24T06:03:07.156Z,124
2017-06-24T06:04:07.785Z,128
2017-06-24T06:05:08.435Z,124
2017-06-24T06:06:09.083Z,136
2017-06-24T06:07:09.710Z,140
2017-06-24T06:08:10.394Z,148
2017-06-24T06:09:11.115Z,148
2017-06-24T06:10:11.741Z,140
2017-06-24T06:11:12.411Z,144
2017-06-24T06:12:13.033Z,152
2017-06-24T06:13:13.657Z,144
2017-06-24T06:14:14.285Z,140
2017-06-24T06:15:14.912Z,128
2017-06-24T06:16:15.582Z,128
2017-06-24T06:17:16.212Z,136
2017-06-24T06:18:16.831Z,140
2017-06-24T06:19:17.485Z,148
2017-06-24T06:20:18.093Z,144
2017-06-24T06:21:18.798Z,148
2017-06-24T06:22:19.423Z,136
2017-06-24T06:23:20.071Z,144
2017-06-24T06:24:20.682Z,132
2017-06-24T06:25:21.304Z,128
2017-06-24T06:26:21.977Z,120
2017-06-24T06:27:22.626Z,120
2017-06-24T06:28:23.269Z,108
2017-06-24T06:29:23.926Z,104
2017-06-24T06:30:24.547Z,116
2017-06-24T06:31:25.221Z,100
2017-06-24T06:32:25.869Z,96
2017-06-24T06:33:26.476Z,100
2017-06-24T06:34:27.099Z,92
2017-06-24T06:35:27.722Z,100
2017-06-24T06:36:28.429Z,104
2017-06-24T06:37:29.053Z,104
2017-06-24T06:38:29.674Z,104
2017-06-24T06:39:30.298Z,104
2017-06-24T06:40:30.919Z,104
2017-06-24T06:41:31.594Z,104
2017-06-24T06:42:32.220Z,104
2017-06-24T06:43:32.844Z,104
2017-06-24T06:44:33.467Z,104
2017-06-24T06:45:34.115Z,104
2017-06-24T06:46:34.776Z,104
2017-06-24T06:47:35.402Z,108
2017-06-24T06:48:36.054Z,108
2017-06-24T06:49:36.677Z,112
2017-06-24T06:50:37.300Z,108
2017-06-24T06:51:37.974Z,116
2017-06-24T06:52:38.636Z,116
2017-06-24T06:53:39.257Z,120
2017-06-24T06:54:39.914Z,124
2017-06-24T06:55:40.570Z,124
2017-06-24T06:56:41.221Z,124
2017-06-24T06:57:41.832Z,128
2017-06-24T06:58:42.488Z,136
2017-06-24T06:59:43.110Z,140
2017-06-24T07:00:43.786Z,144
2017-06-24T07:01:44.411Z,144
2017-06-24T07:02:45.034Z,124
2017-06-24T07:03:45.663Z,124
2017-06-24T07:04:46.283Z,136
2017-06-24T07:05:46.956Z,132
2017-06-24T07:06:47.607Z,104
2017-06-24T07:07:48.216Z,124
2017-06-24T07:08:48.873Z,132
2017-06-24T07:09:49.503Z,120
2017-06-24T07:10:50.211Z,136
2017-06-24T07:11:50.837Z,136
2017-06-24T07:12:51.461Z,136
2017-06-24T07:13:52.082Z,140
2017-06-24T07:14:52.704Z,140
2017-06-24T07:15:53.379Z,136
2017-06-24T07:16:54.039Z,136
2017-06-24T07:17:54.695Z,148
2017-06-24T07:18:55.319Z,148
2017-06-24T07:19:55.942Z,144
2017-06-24T07:20:56.616Z,148
2017-06-24T07:21:57.241Z,148
2017-06-24T07:22:57.869Z,148
2017-06-24T07:23:58.526Z,144
2017-06-24T07:24:59.151Z,140
2017-06-24T07:25:59.825Z,140
2017-06-24T07:27:00.448Z,144
2017-06-24T07:28:01.071Z,144
2017-06-24T07:29:01.728Z,148
2017-06-24T07:30:02.335Z,152
2017-06-24T07:31:03.043Z,152
2017-06-24T07:32:03.668Z,160
2017-06-24T07:33:04.293Z,156
2017-06-24T07:34:04.916Z,160
2017-06-24T07:35:05.540Z,168
2017-06-24T07:36:06.213Z,172
2017-06-24T07:37:06.864Z,160
2017-06-24T07:38:07.501Z,184
2017-06-24T07:39:08.111Z,200
2017-06-24T07:40:08.733Z,196
2017-06-24T07:41:09.439Z,196
2017-06-24T07:42:10.047Z,164
2017-06-24T07:43:10.672Z,140
2017-06-24T07:44:11.294Z,136
2017-06-24T07:45:11.920Z,132
2017-06-24T07:46:12.595Z,176
2017-06-24T07:47:13.219Z,176
2017-06-24T07:48:13.844Z,172
2017-06-24T07:49:14.467Z,132
2017-06-24T07:50:15.089Z,184
2017-06-24T07:51:15.771Z,176
2017-06-24T07:52:16.394Z,152
2017-06-24T07:53:17.017Z,188
2017-06-24T07:54:17.640Z,188
2017-06-24T07:55:18.269Z,188
2017-06-24T07:56:18.940Z,188
2017-06-24T07:57:19.570Z,184
2017-06-24T07:58:20.192Z,180
2017-06-24T07:59:20.814Z,180
2017-06-24T08:00:21.464Z,184
2017-06-24T08:01:22.152Z,180
2017-06-24T08:02:22.765Z,184
2017-06-24T08:03:23.414Z,184
2017-06-24T08:04:24.026Z,184
2017-06-24T08:05:24.656Z,184
2017-06-24T08:06:25.326Z,192
2017-06-24T08:07:26.006Z,188
2017-06-24T08:08:26.619Z,184
2017-06-24T08:09:27.270Z,188
2017-06-24T08:10:27.930Z,188
2017-06-24T08:11:28.606Z,192
2017-06-24T08:12:29.258Z,196
2017-06-24T08:13:29.894Z,200
2017-06-24T08:14:30.503Z,200
2017-06-24T08:15:31.125Z,200
2017-06-24T08:16:31.807Z,204
2017-06-24T08:17:32.429Z,208
2017-06-24T08:18:33.051Z,212
2017-06-24T08:19:33.677Z,216
2017-06-24T08:20:34.300Z,216
2017-06-24T08:21:34.975Z,220
2017-06-24T08:22:35.603Z,224
2017-06-24T08:23:36.227Z,228
2017-06-24T08:24:36.878Z,232
2017-06-24T08:25:37.491Z,240
2017-06-24T08:26:38.166Z,240
2017-06-24T08:27:38.789Z,136
2017-06-24T08:28:39.412Z,240
2017-06-24T08:29:40.038Z,248
2017-06-24T08:30:40.661Z,244
2017-06-24T08:31:41.336Z,244
2017-06-24T08:32:41.983Z,256
2017-06-24T08:33:42.595Z,260
2017-06-24T08:34:43.254Z,260
2017-06-24T08:35:43.877Z,264
2017-06-24T08:36:44.579Z,264
2017-06-24T08:37:45.191Z,272
2017-06-24T08:38:45.818Z,268
2017-06-24T08:39:46.441Z,280
2017-06-24T08:40:47.128Z,284
2017-06-24T08:41:47.822Z,288
2017-06-24T08:42:48.482Z,292
2017-06-24T08:43:49.129Z,296
2017-06-24T08:44:49.741Z,304
2017-06-24T08:45:50.398Z,312
2017-06-24T08:46:51.077Z,320
2017-06-24T08:47:51.700Z,332
2017-06-24T08:48:52.324Z,332
2017-06-24T08:49:52.950Z,340
2017-06-24T08:50:53.579Z,348
2017-06-24T08:51:54.258Z,332
2017-06-24T08:52:54.915Z,364
2017-06-24T08:53:55.547Z,376
2017-06-24T08:54:56.168Z,384
2017-06-24T08:55:56.795Z,376
2017-06-24T08:56:57.473Z,396
2017-06-24T08:57:58.095Z,392
2017-06-24T08:58:58.721Z,396
2017-06-24T08:59:59.382Z,396
2017-06-24T09:00:59.991Z,400
2017-06-24T09:02:00.667Z,412
2017-06-24T09:03:01.291Z,408
2017-06-24T09:04:01.951Z,428
2017-06-24T09:05:02.561Z,436
2017-06-24T09:06:03.218Z,436
2017-06-24T09:07:03.892Z,444
2017-06-24T09:08:04.519Z,456
2017-06-24T09:09:05.144Z,468
2017-06-24T09:10:05.767Z,316
2017-06-24T09:11:06.394Z,476
2017-06-24T09:12:07.069Z,468
2017-06-24T09:13:07.694Z,488
2017-06-24T09:14:08.347Z,508
2017-06-24T09:15:08.960Z,508
2017-06-24T09:16:09.611Z,520
2017-06-24T09:17:10.274Z,528
2017-06-24T09:18:10.900Z,512
2017-06-24T09:19:11.526Z,548
2017-06-24T09:20:12.186Z,540
2017-06-24T09:21:12.817Z,428
2017-06-24T09:22:13.491Z,420
2017-06-24T09:23:14.118Z,440
2017-06-24T09:24:14.743Z,504
2017-06-24T09:25:15.370Z,560
2017-06-24T09:26:15.998Z,408
2017-06-24T09:27:16.674Z,556
2017-06-24T09:28:17.307Z,512
2017-06-24T09:29:17.935Z,496
2017-06-24T09:30:18.559Z,388
2017-06-24T09:31:19.186Z,504
2017-06-24T09:32:19.868Z,480
2017-06-24T09:33:20.497Z,496
2017-06-24T09:34:21.126Z,384
2017-06-24T09:35:21.751Z,512
2017-06-24T09:36:22.401Z,580
2017-06-24T09:37:23.062Z,616
2017-06-24T09:38:23.689Z,592
2017-06-24T09:39:24.313Z,540
2017-06-24T09:40:24.940Z,452
2017-06-24T09:41:25.569Z,396
2017-06-24T09:42:26.272Z,388
2017-06-24T09:43:26.912Z,352
2017-06-24T09:44:27.524Z,332
2017-06-24T09:45:28.183Z,320
2017-06-24T09:46:28.792Z,308
2017-06-24T09:47:29.468Z,300
2017-06-24T09:48:30.142Z,296
2017-06-24T09:49:30.770Z,324
2017-06-24T09:50:31.394Z,332
2017-06-24T09:51:32.021Z,308
2017-06-24T09:52:32.645Z,348
2017-06-24T09:53:33.323Z,368
2017-06-24T09:54:33.949Z,256
2017-06-24T09:55:34.579Z,388
2017-06-24T09:56:35.203Z,484
2017-06-24T09:57:35.863Z,504
2017-06-24T09:58:36.538Z,572
2017-06-24T09:59:37.166Z,424
2017-06-24T10:00:37.791Z,424
2017-06-24T10:01:38.423Z,460
2017-06-24T10:02:39.051Z,344
2017-06-24T10:03:39.725Z,464
2017-06-24T10:04:40.350Z,524
2017-06-24T10:05:40.981Z,520
2017-06-24T10:06:41.610Z,476
2017-06-24T10:07:42.234Z,416
2017-06-24T10:08:42.912Z,472
2017-06-24T10:09:43.539Z,484
2017-06-24T10:10:44.164Z,460
2017-06-24T10:11:44.793Z,452
2017-06-24T10:12:45.441Z,484
2017-06-24T10:13:46.103Z,556
2017-06-24T10:14:46.731Z,592
2017-06-24T10:15:47.355Z,628
2017-06-24T10:16:47.980Z,648
2017-06-24T10:17:48.632Z,668
2017-06-24T10:18:49.293Z,596
2017-06-24T10:19:49.945Z,616
2017-06-24T10:20:50.558Z,684
2017-06-24T10:21:51.185Z,680
2017-06-24T10:22:51.837Z,680
2017-06-24T10:23:52.500Z,700
2017-06-24T10:24:53.131Z,708
2017-06-24T10:25:53.753Z,704
2017-06-24T10:26:54.381Z,716
2017-06-24T10:27:55.006Z,724
2017-06-24T10:28:55.683Z,720
2017-06-24T10:29:56.312Z,748
2017-06-24T10:30:57.015Z,764
2017-06-24T10:31:57.630Z,672
2017-06-24T10:32:58.258Z,752
2017-06-24T10:33:58.886Z,760
2017-06-24T10:34:59.512Z,760
2017-06-24T10:36:00.191Z,760
2017-06-24T10:37:00.818Z,740
2017-06-24T10:38:01.471Z,720
2017-06-24T10:39:02.085Z,672
2017-06-24T10:40:02.717Z,608
2017-06-24T10:41:03.391Z,556
2017-06-24T10:42:04.018Z,496
2017-06-24T10:43:04.644Z,508
2017-06-24T10:44:05.275Z,660
2017-06-24T10:45:05.906Z,764
2017-06-24T10:46:06.590Z,748
2017-06-24T10:47:07.216Z,684
2017-06-24T10:48:07.842Z,724
2017-06-24T10:49:08.506Z,732
2017-06-24T10:50:09.138Z,776
2017-06-24T10:51:09.819Z,800
2017-06-24T10:52:10.444Z,808
2017-06-24T10:53:11.074Z,808
2017-06-24T10:54:11.701Z,816
2017-06-24T10:55:12.383Z,852
2017-06-24T10:56:13.086Z,800
2017-06-24T10:57:13.728Z,812
2017-06-24T10:58:14.342Z,796
2017-06-24T10:59:14.968Z,828
2017-06-24T11:00:15.597Z,840
2017-06-24T11:01:16.276Z,812
2017-06-24T11:02:16.987Z,780
2017-06-24T11:03:17.613Z,768
2017-06-24T11:04:18.267Z,720
2017-06-24T11:05:18.886Z,744
2017-06-24T11:06:19.540Z,640
2017-06-24T11:07:20.207Z,604
2017-06-24T11:08:20.869Z,608
2017-06-24T11:09:21.521Z,632
2017-06-24T11:10:22.166Z,668
2017-06-24T11:11:22.811Z,724
2017-06-24T11:12:23.474Z,612
2017-06-24T11:13:24.103Z,740
2017-06-24T11:14:24.732Z,852
2017-06-24T11:15:25.366Z,716
2017-06-24T11:16:25.990Z,760
2017-06-24T11:17:26.697Z,768
2017-06-24T11:18:27.310Z,704
2017-06-24T11:19:27.939Z,636
2017-06-24T11:20:28.567Z,772
2017-06-24T11:21:29.280Z,620
2017-06-24T11:22:29.908Z,604
2017-06-24T11:23:30.533Z,832
2017-06-24T11:24:31.162Z,824
2017-06-24T11:25:31.845Z,836
2017-06-24T11:26:32.506Z,860
2017-06-24T11:27:33.140Z,816
2017-06-24T11:28:33.841Z,900
2017-06-24T11:29:34.491Z,884
2017-06-24T11:30:35.103Z,896
2017-06-24T11:31:35.728Z,836
2017-06-24T11:32:36.359Z,848
2017-06-24T11:33:37.035Z,852
2017-06-24T11:34:37.667Z,872
2017-06-24T11:35:38.289Z,912
2017-06-24T11:36:38.917Z,924
2017-06-24T11:37:39.546Z,912
2017-06-24T11:38:40.226Z,932
2017-06-24T11:39:40.889Z,900
2017-06-24T11:40:41.517Z,832
2017-06-24T11:41:42.144Z,824
2017-06-24T11:42:42.772Z,868
2017-06-24T11:43:43.471Z,896
2017-06-24T11:44:44.088Z,900
2017-06-24T11:45:44.721Z,896
2017-06-24T11:46:45.353Z,860
2017-06-24T11:47:45.979Z,896
2017-06-24T11:48:46.655Z,924
2017-06-24T11:49:47.285Z,896
2017-06-24T11:50:47.912Z,964
2017-06-24T11:51:48.539Z,960
2017-06-24T11:52:49.170Z,968
2017-06-24T11:53:49.849Z,972
2017-06-24T11:54:50.522Z,968
2017-06-24T11:55:51.149Z,968
2017-06-24T11:56:51.782Z,900
2017-06-24T11:57:52.414Z,972
2017-06-24T11:58:53.074Z,968
2017-06-24T11:59:53.782Z,976
2017-06-24T12:00:54.441Z,972
2017-06-24T12:01:55.093Z,964
2017-06-24T12:02:55.709Z,976
2017-06-24T12:03:56.336Z,980
2017-06-24T12:04:57.014Z,940
2017-06-24T12:05:57.643Z,896
2017-06-24T12:06:58.273Z,692
2017-06-24T12:07:58.928Z,620
2017-06-24T12:08:59.573Z,876
2017-06-24T12:10:00.236Z,936
2017-06-24T12:11:00.864Z,968
2017-06-24T12:12:01.497Z,988
2017-06-24T12:13:02.123Z,1000
2017-06-24T12:14:02.775Z,992
2017-06-24T12:15:03.491Z,1000
2017-06-24T12:16:04.119Z,1008
2017-06-24T12:17:04.749Z,1012
2017-06-24T12:18:05.378Z,1012
2017-06-24T12:19:06.007Z,1012
2017-06-24T12:20:06.690Z,1008
2017-06-24T12:21:07.320Z,1012
2017-06-24T12:22:07.945Z,1012
2017-06-24T12:23:08.573Z,1024
2017-06-24T12:24:09.204Z,1024
2017-06-24T12:25:09.881Z,996
2017-06-24T12:26:10.510Z,992
2017-06-24T12:27:11.137Z,1020
2017-06-24T12:28:11.806Z,1028
2017-06-24T12:29:12.476Z,1044
2017-06-24T12:30:13.152Z,1048
2017-06-24T12:31:13.788Z,1044
2017-06-24T12:32:14.414Z,1048
2017-06-24T12:33:15.070Z,1048
2017-06-24T12:34:15.689Z,1052
2017-06-24T12:35:16.394Z,1056
2017-06-24T12:36:17.010Z,1052
2017-06-24T12:37:17.638Z,1056
2017-06-24T12:38:18.266Z,1064
2017-06-24T12:39:18.893Z,1064
2017-06-24T12:40:19.574Z,1064
2017-06-24T12:41:20.203Z,1064
2017-06-24T12:42:20.866Z,1076
2017-06-24T12:43:21.500Z,1080
2017-06-24T12:44:22.134Z,1072
2017-06-24T12:45:22.847Z,1084
2017-06-24T12:46:23.456Z,1080
2017-06-24T12:47:24.086Z,1072
2017-06-24T12:48:24.715Z,1080
2017-06-24T12:49:25.344Z,1088
2017-06-24T12:50:26.025Z,1088
2017-06-24T12:51:26.665Z,1088
2017-06-24T12:52:27.332Z,1096
2017-06-24T12:53:27.959Z,1096
2017-06-24T12:54:28.590Z,1100
2017-06-24T12:55:29.274Z,1108
2017-06-24T12:56:29.907Z,1100
2017-06-24T12:57:30.559Z,1096
2017-06-24T12:58:31.223Z,1096
2017-06-24T12:59:31.852Z,1096
2017-06-24T13:00:32.783Z,1104
2017-06-24T13:01:33.420Z,1116
2017-06-24T13:02:34.047Z,1108
2017-06-24T13:03:34.677Z,1112
2017-06-24T13:04:35.311Z,1112
2017-06-24T13:05:35.989Z,1116
2017-06-24T13:06:36.651Z,1112
2017-06-24T13:07:37.265Z,1116
2017-06-24T13:08:37.896Z,1116
2017-06-24T13:09:38.523Z,1116
2017-06-24T13:10:39.205Z,1116
2017-06-24T13:11:39.863Z,1116
2017-06-24T13:12:40.505Z,1112
2017-06-24T13:13:41.122Z,1116
2017-06-24T13:14:41.751Z,1112
2017-06-24T13:15:42.433Z,1124
2017-06-24T13:16:43.061Z,1112
2017-06-24T13:17:43.691Z,1120
2017-06-24T13:18:44.323Z,1116
2017-06-24T13:19:44.952Z,1120
2017-06-24T13:20:45.630Z,1120
2017-06-24T13:21:46.261Z,1120
2017-06-24T13:22:46.926Z,1128
2017-06-24T13:23:47.561Z,1132
2017-06-24T13:24:48.190Z,1132
2017-06-24T13:25:48.870Z,1132
2017-06-24T13:26:49.499Z,1128
2017-06-24T13:27:50.137Z,1128
2017-06-24T13:28:50.764Z,1128
2017-06-24T13:29:51.395Z,1128
2017-06-24T13:30:52.132Z,1128
2017-06-24T13:31:52.760Z,1136
2017-06-24T13:32:53.392Z,1136
2017-06-24T13:33:54.018Z,1132
2017-06-24T13:34:54.647Z,1124
2017-06-24T13:35:55.354Z,1120
2017-06-24T13:36:55.973Z,1120
2017-06-24T13:37:56.602Z,1128
2017-06-24T13:38:57.232Z,1136
2017-06-24T13:39:57.885Z,1132
2017-06-24T13:40:58.554Z,1136
2017-06-24T13:41:59.209Z,1136
2017-06-24T13:42:59.855Z,1128
2017-06-24T13:44:00.476Z,1132
2017-06-24T13:45:01.111Z,1132
2017-06-24T13:46:01.823Z,1128
2017-06-24T13:47:02.455Z,1128
2017-06-24T13:48:03.082Z,1132
2017-06-24T13:49:03.739Z,1124
2017-06-24T13:50:04.359Z,1128
2017-06-24T13:51:05.038Z,1132
2017-06-24T13:52:05.698Z,1124
2017-06-24T13:53:06.312Z,1124
2017-06-24T13:54:06.943Z,1132
2017-06-24T13:55:07.582Z,1124
2017-06-24T13:56:08.255Z,1132
2017-06-24T13:57:08.890Z,1136
2017-06-24T13:58:09.545Z,1148
2017-06-24T13:59:10.187Z,1148
2017-06-24T14:00:10.803Z,1144
2017-06-24T14:01:11.484Z,1136
2017-06-24T14:02:12.115Z,1128
2017-06-24T14:03:12.743Z,1128
2017-06-24T14:04:13.381Z,1128
2017-06-24T14:05:14.008Z,1120
2017-06-24T14:06:14.688Z,1120
2017-06-24T14:07:15.318Z,1124
2017-06-24T14:08:15.949Z,1124
2017-06-24T14:09:16.579Z,1116
2017-06-24T14:10:17.207Z,1104
2017-06-24T14:11:17.889Z,1104